sensor_id;sensor_type;location;lat;lon;timestamp;P1;durP1;ratioP1;P2;durP2;ratioP2
9739;SDS011;4909;42.680;26.324;2022-07-30T00:00:48;1.20;;;1.00;;
9739;SDS011;4909;42.680;26.324;2022-07-30T00:03:15;4.63;;;1.73;;
9739;SDS011;4909;42.680;26.324;2022-07-30T00:05:44;2.07;;;1.17;;
9739;SDS011;4909;42.680;26.324;2022-07-30T00:08:10;1.93;;;1.20;;
9739;SDS011;4909;42.680;26.324;2022-07-30T00:10:38;4.03;;;1.83;;
9739;SDS011;4909;42.680;26.324;2022-07-30T00:13:05;3.27;;;1.60;;
9739;SDS011;4909;42.680;26.324;2022-07-30T00:15:32;3.23;;;1.47;;
9739;SDS011;4909;42.680;26.324;2022-07-30T00:17:59;2.10;;;1.30;;
9739;SDS011;4909;42.680;26.324;2022-07-30T00:20:26;2.90;;;1.50;;
9739;SDS011;4909;42.680;26.324;2022-07-30T00:22:54;1.17;;;1.00;;
9739;SDS011;4909;42.680;26.324;2022-07-30T00:25:21;2.10;;;1.20;;
9739;SDS011;4909;42.680;26.324;2022-07-30T00:27:48;2.57;;;1.43;;
9739;SDS011;4909;42.680;26.324;2022-07-30T00:30:15;1.47;;;1.17;;
9739;SDS011;4909;42.680;26.324;2022-07-30T00:32:42;3.10;;;1.53;;
9739;SDS011;4909;42.680;26.324;2022-07-30T00:35:09;2.10;;;1.27;;
9739;SDS011;4909;42.680;26.324;2022-07-30T00:37:36;2.70;;;1.43;;
9739;SDS011;4909;42.680;26.324;2022-07-30T00:40:05;2.30;;;1.30;;
9739;SDS011;4909;42.680;26.324;2022-07-30T00:42:37;2.63;;;1.47;;
9739;SDS011;4909;42.680;26.324;2022-07-30T00:45:06;2.33;;;1.30;;
9739;SDS011;4909;42.680;26.324;2022-07-30T00:47:33;2.90;;;1.60;;
9739;SDS011;4909;42.680;26.324;2022-07-30T00:50:00;5.33;;;2.00;;
9739;SDS011;4909;42.680;26.324;2022-07-30T00:52:28;2.20;;;1.30;;
9739;SDS011;4909;42.680;26.324;2022-07-30T00:54:56;1.43;;;1.10;;
9739;SDS011;4909;42.680;26.324;2022-07-30T00:57:24;3.30;;;1.53;;
9739;SDS011;4909;42.680;26.324;2022-07-30T00:59:52;4.13;;;1.87;;
9739;SDS011;4909;42.680;26.324;2022-07-30T01:02:19;2.13;;;1.23;;
9739;SDS011;4909;42.680;26.324;2022-07-30T01:04:46;1.60;;;1.07;;
9739;SDS011;4909;42.680;26.324;2022-07-30T01:07:13;2.87;;;1.50;;
9739;SDS011;4909;42.680;26.324;2022-07-30T01:09:40;3.83;;;1.63;;
9739;SDS011;4909;42.680;26.324;2022-07-30T01:12:07;2.90;;;1.43;;
9739;SDS011;4909;42.680;26.324;2022-07-30T01:14:37;3.43;;;1.50;;
9739;SDS011;4909;42.680;26.324;2022-07-30T01:17:05;1.20;;;1.10;;
9739;SDS011;4909;42.680;26.324;2022-07-30T01:19:32;1.33;;;1.00;;
9739;SDS011;4909;42.680;26.324;2022-07-30T01:22:16;1.90;;;1.20;;
9739;SDS011;4909;42.680;26.324;2022-07-30T01:24:51;2.53;;;1.33;;
9739;SDS011;4909;42.680;26.324;2022-07-30T01:27:23;2.20;;;1.20;;
9739;SDS011;4909;42.680;26.324;2022-07-30T01:29:51;3.73;;;1.60;;
9739;SDS011;4909;42.680;26.324;2022-07-30T01:32:20;1.33;;;1.10;;
9739;SDS011;4909;42.680;26.324;2022-07-30T01:34:50;3.80;;;1.77;;
9739;SDS011;4909;42.680;26.324;2022-07-30T01:37:20;2.97;;;1.57;;
9739;SDS011;4909;42.680;26.324;2022-07-30T01:39:49;3.83;;;1.77;;
9739;SDS011;4909;42.680;26.324;2022-07-30T01:42:18;2.30;;;1.13;;
9739;SDS011;4909;42.680;26.324;2022-07-30T01:44:49;2.47;;;1.30;;
9739;SDS011;4909;42.680;26.324;2022-07-30T01:47:16;1.27;;;1.00;;
9739;SDS011;4909;42.680;26.324;2022-07-30T01:49:45;1.70;;;1.10;;
9739;SDS011;4909;42.680;26.324;2022-07-30T01:52:14;2.13;;;1.30;;
9739;SDS011;4909;42.680;26.324;2022-07-30T01:54:43;2.27;;;1.30;;
9739;SDS011;4909;42.680;26.324;2022-07-30T01:57:10;2.53;;;1.40;;
9739;SDS011;4909;42.680;26.324;2022-07-30T01:59:39;1.50;;;1.07;;
9739;SDS011;4909;42.680;26.324;2022-07-30T02:02:10;2.47;;;1.30;;
9739;SDS011;4909;42.680;26.324;2022-07-30T02:04:37;2.10;;;1.23;;
9739;SDS011;4909;42.680;26.324;2022-07-30T02:07:06;3.10;;;1.50;;
9739;SDS011;4909;42.680;26.324;2022-07-30T02:09:40;4.83;;;1.83;;
9739;SDS011;4909;42.680;26.324;2022-07-30T02:12:13;3.40;;;1.53;;
9739;SDS011;4909;42.680;26.324;2022-07-30T02:14:59;1.17;;;1.00;;
9739;SDS011;4909;42.680;26.324;2022-07-30T02:17:37;1.07;;;0.93;;
9739;SDS011;4909;42.680;26.324;2022-07-30T02:20:06;1.43;;;1.00;;
9739;SDS011;4909;42.680;26.324;2022-07-30T02:22:38;2.07;;;1.20;;
9739;SDS011;4909;42.680;26.324;2022-07-30T02:25:08;2.13;;;1.30;;
9739;SDS011;4909;42.680;26.324;2022-07-30T02:27:36;1.23;;;1.00;;
9739;SDS011;4909;42.680;26.324;2022-07-30T02:30:06;2.00;;;1.20;;
9739;SDS011;4909;42.680;26.324;2022-07-30T02:32:34;3.80;;;1.63;;
9739;SDS011;4909;42.680;26.324;2022-07-30T02:35:07;2.13;;;1.30;;
9739;SDS011;4909;42.680;26.324;2022-07-30T02:37:37;1.30;;;0.93;;
9739;SDS011;4909;42.680;26.324;2022-07-30T02:40:07;1.70;;;1.10;;
9739;SDS011;4909;42.680;26.324;2022-07-30T02:42:35;1.90;;;1.23;;
9739;SDS011;4909;42.680;26.324;2022-07-30T02:45:04;3.70;;;1.73;;
9739;SDS011;4909;42.680;26.324;2022-07-30T02:47:32;1.90;;;1.00;;
9739;SDS011;4909;42.680;26.324;2022-07-30T02:50:03;2.50;;;1.30;;
9739;SDS011;4909;42.680;26.324;2022-07-30T02:52:33;2.00;;;1.20;;
9739;SDS011;4909;42.680;26.324;2022-07-30T02:55:01;2.17;;;1.10;;
9739;SDS011;4909;42.680;26.324;2022-07-30T02:57:29;2.03;;;1.20;;
9739;SDS011;4909;42.680;26.324;2022-07-30T02:59:58;2.33;;;1.20;;
9739;SDS011;4909;42.680;26.324;2022-07-30T03:02:26;1.87;;;1.00;;
9739;SDS011;4909;42.680;26.324;2022-07-30T03:04:54;3.27;;;1.57;;
9739;SDS011;4909;42.680;26.324;2022-07-30T03:07:24;2.33;;;1.20;;
9739;SDS011;4909;42.680;26.324;2022-07-30T03:09:54;2.83;;;1.20;;
9739;SDS011;4909;42.680;26.324;2022-07-30T03:12:22;1.60;;;1.10;;
9739;SDS011;4909;42.680;26.324;2022-07-30T03:14:50;2.30;;;1.17;;
9739;SDS011;4909;42.680;26.324;2022-07-30T03:17:20;3.13;;;1.50;;
9739;SDS011;4909;42.680;26.324;2022-07-30T03:19:51;3.00;;;1.37;;
9739;SDS011;4909;42.680;26.324;2022-07-30T03:22:20;1.33;;;0.90;;
9739;SDS011;4909;42.680;26.324;2022-07-30T03:24:59;3.03;;;1.40;;
9739;SDS011;4909;42.680;26.324;2022-07-30T03:27:28;2.97;;;1.30;;
9739;SDS011;4909;42.680;26.324;2022-07-30T03:29:57;3.23;;;1.50;;
9739;SDS011;4909;42.680;26.324;2022-07-30T03:32:33;2.10;;;1.17;;
9739;SDS011;4909;42.680;26.324;2022-07-30T03:35:01;3.73;;;1.50;;
9739;SDS011;4909;42.680;26.324;2022-07-30T03:37:29;1.57;;;1.03;;
9739;SDS011;4909;42.680;26.324;2022-07-30T03:39:58;2.50;;;1.20;;
9739;SDS011;4909;42.680;26.324;2022-07-30T03:42:25;2.30;;;1.20;;
9739;SDS011;4909;42.680;26.324;2022-07-30T03:44:53;2.37;;;1.13;;
9739;SDS011;4909;42.680;26.324;2022-07-30T03:47:21;4.70;;;1.73;;
9739;SDS011;4909;42.680;26.324;2022-07-30T03:49:50;2.67;;;1.40;;
9739;SDS011;4909;42.680;26.324;2022-07-30T03:52:17;2.73;;;1.33;;
9739;SDS011;4909;42.680;26.324;2022-07-30T03:54:45;1.97;;;1.07;;
9739;SDS011;4909;42.680;26.324;2022-07-30T03:57:14;2.97;;;1.30;;
9739;SDS011;4909;42.680;26.324;2022-07-30T03:59:41;2.73;;;1.27;;
9739;SDS011;4909;42.680;26.324;2022-07-30T04:02:08;3.40;;;1.57;;
9739;SDS011;4909;42.680;26.324;2022-07-30T04:04:35;2.83;;;1.27;;
9739;SDS011;4909;42.680;26.324;2022-07-30T04:07:06;1.53;;;1.10;;
9739;SDS011;4909;42.680;26.324;2022-07-30T04:09:33;1.83;;;1.10;;
9739;SDS011;4909;42.680;26.324;2022-07-30T04:12:00;1.60;;;0.93;;
9739;SDS011;4909;42.680;26.324;2022-07-30T04:14:33;1.77;;;1.20;;
9739;SDS011;4909;42.680;26.324;2022-07-30T04:17:07;1.67;;;1.10;;
9739;SDS011;4909;42.680;26.324;2022-07-30T04:19:38;1.73;;;1.10;;
9739;SDS011;4909;42.680;26.324;2022-07-30T04:22:10;1.67;;;1.10;;
9739;SDS011;4909;42.680;26.324;2022-07-30T04:24:38;2.00;;;1.17;;
9739;SDS011;4909;42.680;26.324;2022-07-30T04:27:06;1.90;;;1.17;;
9739;SDS011;4909;42.680;26.324;2022-07-30T04:29:34;2.23;;;1.23;;
9739;SDS011;4909;42.680;26.324;2022-07-30T04:32:01;2.10;;;1.27;;
9739;SDS011;4909;42.680;26.324;2022-07-30T04:34:29;2.20;;;1.27;;
9739;SDS011;4909;42.680;26.324;2022-07-30T04:36:56;3.20;;;1.43;;
9739;SDS011;4909;42.680;26.324;2022-07-30T04:39:23;2.03;;;1.40;;
9739;SDS011;4909;42.680;26.324;2022-07-30T04:41:49;2.07;;;1.23;;
9739;SDS011;4909;42.680;26.324;2022-07-30T04:44:17;6.07;;;2.33;;
9739;SDS011;4909;42.680;26.324;2022-07-30T04:46:45;3.07;;;1.53;;
9739;SDS011;4909;42.680;26.324;2022-07-30T04:49:13;3.17;;;1.63;;
9739;SDS011;4909;42.680;26.324;2022-07-30T04:51:42;2.73;;;1.53;;
9739;SDS011;4909;42.680;26.324;2022-07-30T04:54:12;3.70;;;1.80;;
9739;SDS011;4909;42.680;26.324;2022-07-30T04:56:41;3.37;;;1.60;;
9739;SDS011;4909;42.680;26.324;2022-07-30T04:59:08;3.73;;;1.80;;
9739;SDS011;4909;42.680;26.324;2022-07-30T05:01:36;3.73;;;1.83;;
9739;SDS011;4909;42.680;26.324;2022-07-30T05:04:07;5.60;;;2.30;;
9739;SDS011;4909;42.680;26.324;2022-07-30T05:06:36;5.03;;;2.10;;
9739;SDS011;4909;42.680;26.324;2022-07-30T05:09:04;2.53;;;1.57;;
9739;SDS011;4909;42.680;26.324;2022-07-30T05:11:32;3.87;;;2.00;;
9739;SDS011;4909;42.680;26.324;2022-07-30T05:13:59;2.20;;;1.70;;
9739;SDS011;4909;42.680;26.324;2022-07-30T05:16:26;4.80;;;2.20;;
9739;SDS011;4909;42.680;26.324;2022-07-30T05:18:53;3.80;;;1.83;;
9739;SDS011;4909;42.680;26.324;2022-07-30T05:21:21;2.80;;;1.77;;
9739;SDS011;4909;42.680;26.324;2022-07-30T05:23:48;4.17;;;2.00;;
9739;SDS011;4909;42.680;26.324;2022-07-30T05:26:17;3.27;;;1.97;;
9739;SDS011;4909;42.680;26.324;2022-07-30T05:28:44;2.50;;;1.70;;
9739;SDS011;4909;42.680;26.324;2022-07-30T05:31:11;3.20;;;2.07;;
9739;SDS011;4909;42.680;26.324;2022-07-30T05:33:38;3.13;;;1.90;;
9739;SDS011;4909;42.680;26.324;2022-07-30T05:36:05;2.53;;;1.67;;
9739;SDS011;4909;42.680;26.324;2022-07-30T05:38:34;4.37;;;2.13;;
9739;SDS011;4909;42.680;26.324;2022-07-30T05:41:01;5.73;;;2.60;;
9739;SDS011;4909;42.680;26.324;2022-07-30T05:43:28;3.90;;;2.07;;
9739;SDS011;4909;42.680;26.324;2022-07-30T05:45:55;3.47;;;2.17;;
9739;SDS011;4909;42.680;26.324;2022-07-30T05:48:21;4.40;;;2.30;;
9739;SDS011;4909;42.680;26.324;2022-07-30T05:50:48;2.77;;;2.10;;
9739;SDS011;4909;42.680;26.324;2022-07-30T05:53:15;6.03;;;2.67;;
9739;SDS011;4909;42.680;26.324;2022-07-30T05:55:43;4.20;;;2.10;;
9739;SDS011;4909;42.680;26.324;2022-07-30T05:58:10;3.07;;;1.87;;
9739;SDS011;4909;42.680;26.324;2022-07-30T06:00:37;4.00;;;2.23;;
9739;SDS011;4909;42.680;26.324;2022-07-30T06:03:04;4.50;;;2.30;;
9739;SDS011;4909;42.680;26.324;2022-07-30T06:05:31;3.77;;;2.10;;
9739;SDS011;4909;42.680;26.324;2022-07-30T06:07:58;4.93;;;2.70;;
9739;SDS011;4909;42.680;26.324;2022-07-30T06:10:25;2.93;;;1.97;;
9739;SDS011;4909;42.680;26.324;2022-07-30T06:12:53;4.20;;;2.33;;
9739;SDS011;4909;42.680;26.324;2022-07-30T06:15:20;2.57;;;2.03;;
9739;SDS011;4909;42.680;26.324;2022-07-30T06:17:47;5.27;;;2.60;;
9739;SDS011;4909;42.680;26.324;2022-07-30T06:20:14;1.80;;;1.60;;
9739;SDS011;4909;42.680;26.324;2022-07-30T06:22:42;5.67;;;2.73;;
9739;SDS011;4909;42.680;26.324;2022-07-30T06:25:09;5.47;;;2.60;;
9739;SDS011;4909;42.680;26.324;2022-07-30T06:27:37;5.93;;;3.00;;
9739;SDS011;4909;42.680;26.324;2022-07-30T06:30:06;3.27;;;2.03;;
9739;SDS011;4909;42.680;26.324;2022-07-30T06:32:36;4.90;;;2.53;;
9739;SDS011;4909;42.680;26.324;2022-07-30T06:35:03;2.97;;;1.90;;
9739;SDS011;4909;42.680;26.324;2022-07-30T06:37:30;4.47;;;2.27;;
9739;SDS011;4909;42.680;26.324;2022-07-30T06:39:57;4.73;;;2.90;;
9739;SDS011;4909;42.680;26.324;2022-07-30T06:42:24;6.10;;;3.40;;
9739;SDS011;4909;42.680;26.324;2022-07-30T06:44:51;5.60;;;3.30;;
9739;SDS011;4909;42.680;26.324;2022-07-30T06:47:20;5.40;;;3.37;;
9739;SDS011;4909;42.680;26.324;2022-07-30T06:49:50;7.80;;;3.87;;
9739;SDS011;4909;42.680;26.324;2022-07-30T06:52:18;4.77;;;3.37;;
9739;SDS011;4909;42.680;26.324;2022-07-30T06:54:45;3.93;;;2.97;;
9739;SDS011;4909;42.680;26.324;2022-07-30T06:57:13;4.17;;;3.10;;
9739;SDS011;4909;42.680;26.324;2022-07-30T06:59:40;5.13;;;3.47;;
9739;SDS011;4909;42.680;26.324;2022-07-30T07:02:07;3.73;;;2.83;;
9739;SDS011;4909;42.680;26.324;2022-07-30T07:04:35;7.07;;;3.93;;
9739;SDS011;4909;42.680;26.324;2022-07-30T07:07:02;4.23;;;2.97;;
9739;SDS011;4909;42.680;26.324;2022-07-30T07:09:29;7.03;;;3.80;;
9739;SDS011;4909;42.680;26.324;2022-07-30T07:11:56;3.70;;;3.23;;
9739;SDS011;4909;42.680;26.324;2022-07-30T07:14:22;4.93;;;3.20;;
9739;SDS011;4909;42.680;26.324;2022-07-30T07:16:49;3.20;;;2.70;;
9739;SDS011;4909;42.680;26.324;2022-07-30T07:19:16;5.33;;;3.40;;
9739;SDS011;4909;42.680;26.324;2022-07-30T07:21:44;4.37;;;3.07;;
9739;SDS011;4909;42.680;26.324;2022-07-30T07:24:11;3.40;;;2.73;;
9739;SDS011;4909;42.680;26.324;2022-07-30T07:26:38;3.30;;;2.90;;
9739;SDS011;4909;42.680;26.324;2022-07-30T07:29:05;5.27;;;3.57;;
9739;SDS011;4909;42.680;26.324;2022-07-30T07:31:32;5.43;;;3.77;;
9739;SDS011;4909;42.680;26.324;2022-07-30T07:33:59;3.60;;;3.23;;
9739;SDS011;4909;42.680;26.324;2022-07-30T07:36:26;3.40;;;3.17;;
9739;SDS011;4909;42.680;26.324;2022-07-30T07:38:54;4.40;;;3.73;;
9739;SDS011;4909;42.680;26.324;2022-07-30T07:41:21;5.93;;;4.00;;
9739;SDS011;4909;42.680;26.324;2022-07-30T07:43:48;4.10;;;3.70;;
9739;SDS011;4909;42.680;26.324;2022-07-30T07:46:14;4.40;;;4.03;;
9739;SDS011;4909;42.680;26.324;2022-07-30T07:48:41;6.63;;;4.70;;
9739;SDS011;4909;42.680;26.324;2022-07-30T07:51:08;4.70;;;4.20;;
9739;SDS011;4909;42.680;26.324;2022-07-30T07:53:35;4.17;;;3.87;;
9739;SDS011;4909;42.680;26.324;2022-07-30T07:56:04;3.90;;;3.67;;
9739;SDS011;4909;42.680;26.324;2022-07-30T07:58:32;3.70;;;3.40;;
9739;SDS011;4909;42.680;26.324;2022-07-30T08:00:59;4.53;;;4.13;;
9739;SDS011;4909;42.680;26.324;2022-07-30T08:03:26;4.63;;;4.07;;
9739;SDS011;4909;42.680;26.324;2022-07-30T08:05:53;4.87;;;4.50;;
9739;SDS011;4909;42.680;26.324;2022-07-30T08:08:20;6.37;;;5.63;;
9739;SDS011;4909;42.680;26.324;2022-07-30T08:10:47;4.50;;;4.23;;
9739;SDS011;4909;42.680;26.324;2022-07-30T08:13:15;4.60;;;4.20;;
9739;SDS011;4909;42.680;26.324;2022-07-30T08:15:42;4.33;;;4.03;;
9739;SDS011;4909;42.680;26.324;2022-07-30T08:18:09;7.17;;;4.90;;
9739;SDS011;4909;42.680;26.324;2022-07-30T08:20:37;5.03;;;4.43;;
9739;SDS011;4909;42.680;26.324;2022-07-30T08:23:04;4.73;;;4.37;;
9739;SDS011;4909;42.680;26.324;2022-07-30T08:25:31;5.37;;;4.27;;
9739;SDS011;4909;42.680;26.324;2022-07-30T08:27:58;4.97;;;4.30;;
9739;SDS011;4909;42.680;26.324;2022-07-30T08:30:28;4.63;;;4.07;;
9739;SDS011;4909;42.680;26.324;2022-07-30T08:32:55;5.33;;;4.70;;
9739;SDS011;4909;42.680;26.324;2022-07-30T08:35:22;4.37;;;4.07;;
9739;SDS011;4909;42.680;26.324;2022-07-30T08:37:49;5.57;;;5.07;;
9739;SDS011;4909;42.680;26.324;2022-07-30T08:40:17;6.70;;;5.50;;
9739;SDS011;4909;42.680;26.324;2022-07-30T08:42:44;5.53;;;5.07;;
9739;SDS011;4909;42.680;26.324;2022-07-30T08:45:12;5.93;;;5.20;;
9739;SDS011;4909;42.680;26.324;2022-07-30T08:47:43;5.17;;;4.63;;
9739;SDS011;4909;42.680;26.324;2022-07-30T08:50:12;5.57;;;4.73;;
9739;SDS011;4909;42.680;26.324;2022-07-30T08:52:39;5.50;;;5.07;;
9739;SDS011;4909;42.680;26.324;2022-07-30T08:55:07;6.97;;;5.57;;
9739;SDS011;4909;42.680;26.324;2022-07-30T08:57:35;5.43;;;4.93;;
9739;SDS011;4909;42.680;26.324;2022-07-30T09:00:03;7.50;;;5.47;;
9739;SDS011;4909;42.680;26.324;2022-07-30T09:02:32;5.80;;;5.13;;
9739;SDS011;4909;42.680;26.324;2022-07-30T09:05:01;5.22;;;4.72;;
9739;SDS011;4909;42.680;26.324;2022-07-30T09:07:28;8.67;;;6.53;;
9739;SDS011;4909;42.680;26.324;2022-07-30T09:09:57;7.40;;;5.97;;
9739;SDS011;4909;42.680;26.324;2022-07-30T09:12:31;5.07;;;4.70;;
9739;SDS011;4909;42.680;26.324;2022-07-30T09:15:03;5.05;;;4.63;;
9739;SDS011;4909;42.680;26.324;2022-07-30T09:17:47;5.85;;;5.07;;
9739;SDS011;4909;42.680;26.324;2022-07-30T09:20:22;5.25;;;4.95;;
9739;SDS011;4909;42.680;26.324;2022-07-30T09:25:36;6.43;;;5.73;;
9739;SDS011;4909;42.680;26.324;2022-07-30T09:28:05;5.90;;;5.43;;
9739;SDS011;4909;42.680;26.324;2022-07-30T09:30:43;5.95;;;5.47;;
9739;SDS011;4909;42.680;26.324;2022-07-30T09:33:12;5.43;;;5.07;;
9739;SDS011;4909;42.680;26.324;2022-07-30T09:35:40;4.78;;;4.38;;
9739;SDS011;4909;42.680;26.324;2022-07-30T09:38:08;5.43;;;4.97;;
9739;SDS011;4909;42.680;26.324;2022-07-30T09:40:36;7.03;;;5.88;;
9739;SDS011;4909;42.680;26.324;2022-07-30T09:43:06;7.25;;;6.45;;
9739;SDS011;4909;42.680;26.324;2022-07-30T09:45:34;6.50;;;5.90;;
9739;SDS011;4909;42.680;26.324;2022-07-30T09:48:01;5.70;;;5.22;;
9739;SDS011;4909;42.680;26.324;2022-07-30T09:50:47;6.70;;;6.30;;
9739;SDS011;4909;42.680;26.324;2022-07-30T09:53:15;6.23;;;5.30;;
9739;SDS011;4909;42.680;26.324;2022-07-30T09:55:42;5.57;;;5.20;;
9739;SDS011;4909;42.680;26.324;2022-07-30T09:58:09;7.03;;;6.40;;
9739;SDS011;4909;42.680;26.324;2022-07-30T10:00:37;5.43;;;4.97;;
9739;SDS011;4909;42.680;26.324;2022-07-30T10:03:13;5.67;;;5.10;;
9739;SDS011;4909;42.680;26.324;2022-07-30T10:05:49;6.13;;;5.70;;
9739;SDS011;4909;42.680;26.324;2022-07-30T10:08:17;5.07;;;4.73;;
9739;SDS011;4909;42.680;26.324;2022-07-30T10:10:44;7.17;;;6.57;;
9739;SDS011;4909;42.680;26.324;2022-07-30T10:13:12;7.10;;;6.50;;
9739;SDS011;4909;42.680;26.324;2022-07-30T10:15:40;7.50;;;6.70;;
9739;SDS011;4909;42.680;26.324;2022-07-30T10:18:09;7.43;;;6.73;;
9739;SDS011;4909;42.680;26.324;2022-07-30T10:20:36;6.90;;;6.37;;
9739;SDS011;4909;42.680;26.324;2022-07-30T10:23:06;7.90;;;6.78;;
9739;SDS011;4909;42.680;26.324;2022-07-30T10:25:33;5.60;;;5.10;;
9739;SDS011;4909;42.680;26.324;2022-07-30T10:28:01;6.80;;;6.18;;
9739;SDS011;4909;42.680;26.324;2022-07-30T10:30:29;5.38;;;4.93;;
9739;SDS011;4909;42.680;26.324;2022-07-30T10:32:59;7.03;;;6.50;;
9739;SDS011;4909;42.680;26.324;2022-07-30T10:35:27;7.65;;;7.03;;
9739;SDS011;4909;42.680;26.324;2022-07-30T10:37:54;8.13;;;7.45;;
9739;SDS011;4909;42.680;26.324;2022-07-30T10:40:25;6.85;;;6.45;;
9739;SDS011;4909;42.680;26.324;2022-07-30T10:45:55;7.10;;;6.50;;
9739;SDS011;4909;42.680;26.324;2022-07-30T10:48:27;7.10;;;5.68;;
9739;SDS011;4909;42.680;26.324;2022-07-30T10:50:58;6.72;;;6.18;;
9739;SDS011;4909;42.680;26.324;2022-07-30T10:53:32;6.72;;;6.05;;
9739;SDS011;4909;42.680;26.324;2022-07-30T10:56:12;6.60;;;6.10;;
9739;SDS011;4909;42.680;26.324;2022-07-30T11:01:29;6.15;;;5.65;;
9739;SDS011;4909;42.680;26.324;2022-07-30T11:04:34;6.57;;;6.07;;
9739;SDS011;4909;42.680;26.324;2022-07-30T11:09:54;10.05;;;7.60;;
9739;SDS011;4909;42.680;26.324;2022-07-30T11:15:21;6.25;;;5.75;;
9739;SDS011;4909;42.680;26.324;2022-07-30T11:17:59;7.22;;;6.75;;
9739;SDS011;4909;42.680;26.324;2022-07-30T11:20:27;6.93;;;5.72;;
9739;SDS011;4909;42.680;26.324;2022-07-30T11:22:58;6.00;;;5.60;;
9739;SDS011;4909;42.680;26.324;2022-07-30T11:25:38;7.10;;;6.47;;
9739;SDS011;4909;42.680;26.324;2022-07-30T11:37:06;9.70;;;7.20;;
9739;SDS011;4909;42.680;26.324;2022-07-30T11:42:32;7.05;;;6.60;;
9739;SDS011;4909;42.680;26.324;2022-07-30T11:45:21;8.05;;;7.43;;
9739;SDS011;4909;42.680;26.324;2022-07-30T11:47:51;7.22;;;6.72;;
9739;SDS011;4909;42.680;26.324;2022-07-30T11:50:20;8.50;;;6.97;;
9739;SDS011;4909;42.680;26.324;2022-07-30T11:52:50;4.40;;;4.23;;
9739;SDS011;4909;42.680;26.324;2022-07-30T11:55:24;6.03;;;5.73;;
9739;SDS011;4909;42.680;26.324;2022-07-30T11:57:54;6.87;;;5.50;;
9739;SDS011;4909;42.680;26.324;2022-07-30T12:00:23;6.73;;;6.20;;
9739;SDS011;4909;42.680;26.324;2022-07-30T12:02:51;5.73;;;5.43;;
9739;SDS011;4909;42.680;26.324;2022-07-30T12:05:24;7.23;;;6.73;;
9739;SDS011;4909;42.680;26.324;2022-07-30T12:07:55;6.93;;;6.53;;
9739;SDS011;4909;42.680;26.324;2022-07-30T12:10:23;7.87;;;6.83;;
9739;SDS011;4909;42.680;26.324;2022-07-30T12:12:50;5.33;;;4.97;;
9739;SDS011;4909;42.680;26.324;2022-07-30T12:15:28;6.97;;;6.47;;
9739;SDS011;4909;42.680;26.324;2022-07-30T12:17:57;5.90;;;5.50;;
9739;SDS011;4909;42.680;26.324;2022-07-30T12:20:25;9.60;;;7.20;;
9739;SDS011;4909;42.680;26.324;2022-07-30T12:22:53;6.97;;;6.50;;
9739;SDS011;4909;42.680;26.324;2022-07-30T12:25:20;5.90;;;5.50;;
9739;SDS011;4909;42.680;26.324;2022-07-30T12:27:47;5.70;;;5.33;;
9739;SDS011;4909;42.680;26.324;2022-07-30T12:30:15;6.13;;;5.82;;
9739;SDS011;4909;42.680;26.324;2022-07-30T12:32:44;6.33;;;5.93;;
9739;SDS011;4909;42.680;26.324;2022-07-30T12:35:11;6.85;;;6.32;;
9739;SDS011;4909;42.680;26.324;2022-07-30T12:37:38;5.87;;;5.47;;
9739;SDS011;4909;42.680;26.324;2022-07-30T12:40:06;6.70;;;6.30;;
9739;SDS011;4909;42.680;26.324;2022-07-30T12:42:35;6.20;;;5.90;;
9739;SDS011;4909;42.680;26.324;2022-07-30T12:45:04;7.17;;;6.73;;
9739;SDS011;4909;42.680;26.324;2022-07-30T12:47:32;7.33;;;6.77;;
9739;SDS011;4909;42.680;26.324;2022-07-30T12:50:03;7.03;;;6.53;;
9739;SDS011;4909;42.680;26.324;2022-07-30T12:52:46;6.77;;;6.40;;
9739;SDS011;4909;42.680;26.324;2022-07-30T12:55:15;7.53;;;7.00;;
9739;SDS011;4909;42.680;26.324;2022-07-30T12:57:52;6.87;;;6.57;;
9739;SDS011;4909;42.680;26.324;2022-07-30T13:00:20;7.83;;;7.20;;
9739;SDS011;4909;42.680;26.324;2022-07-30T13:02:48;7.80;;;7.30;;
9739;SDS011;4909;42.680;26.324;2022-07-30T13:05:16;8.47;;;7.67;;
9739;SDS011;4909;42.680;26.324;2022-07-30T13:07:55;9.97;;;7.03;;
9739;SDS011;4909;42.680;26.324;2022-07-30T13:10:23;8.40;;;7.77;;
9739;SDS011;4909;42.680;26.324;2022-07-30T13:12:50;7.23;;;6.83;;
9739;SDS011;4909;42.680;26.324;2022-07-30T13:15:17;7.10;;;6.70;;
9739;SDS011;4909;42.680;26.324;2022-07-30T13:17:44;7.43;;;7.03;;
9739;SDS011;4909;42.680;26.324;2022-07-30T13:20:12;9.13;;;8.23;;
9739;SDS011;4909;42.680;26.324;2022-07-30T13:22:41;7.10;;;6.57;;
9739;SDS011;4909;42.680;26.324;2022-07-30T13:25:08;7.70;;;7.23;;
9739;SDS011;4909;42.680;26.324;2022-07-30T13:27:36;7.87;;;7.23;;
9739;SDS011;4909;42.680;26.324;2022-07-30T13:30:03;6.73;;;6.33;;
9739;SDS011;4909;42.680;26.324;2022-07-30T13:32:31;8.63;;;7.77;;
9739;SDS011;4909;42.680;26.324;2022-07-30T13:34:58;6.97;;;6.67;;
9739;SDS011;4909;42.680;26.324;2022-07-30T13:37:25;8.93;;;8.20;;
9739;SDS011;4909;42.680;26.324;2022-07-30T13:39:53;7.17;;;6.67;;
9739;SDS011;4909;42.680;26.324;2022-07-30T13:42:20;8.40;;;7.80;;
9739;SDS011;4909;42.680;26.324;2022-07-30T13:44:47;7.27;;;6.93;;
9739;SDS011;4909;42.680;26.324;2022-07-30T13:47:14;8.90;;;8.50;;
9739;SDS011;4909;42.680;26.324;2022-07-30T13:49:41;9.90;;;9.00;;
9739;SDS011;4909;42.680;26.324;2022-07-30T13:52:10;7.50;;;7.03;;
9739;SDS011;4909;42.680;26.324;2022-07-30T13:54:37;9.33;;;8.73;;
9739;SDS011;4909;42.680;26.324;2022-07-30T13:57:05;8.97;;;8.47;;
9739;SDS011;4909;42.680;26.324;2022-07-30T13:59:32;8.77;;;8.40;;
9739;SDS011;4909;42.680;26.324;2022-07-30T14:01:59;11.53;;;10.57;;
9739;SDS011;4909;42.680;26.324;2022-07-30T14:04:27;13.00;;;12.17;;
9739;SDS011;4909;42.680;26.324;2022-07-30T14:06:55;16.30;;;15.50;;
9739;SDS011;4909;42.680;26.324;2022-07-30T14:09:22;14.77;;;13.77;;
9739;SDS011;4909;42.680;26.324;2022-07-30T14:11:49;18.23;;;17.30;;
9739;SDS011;4909;42.680;26.324;2022-07-30T14:14:19;22.60;;;21.53;;
9739;SDS011;4909;42.680;26.324;2022-07-30T14:16:46;19.93;;;18.93;;
9739;SDS011;4909;42.680;26.324;2022-07-30T14:19:15;11.97;;;11.37;;
9739;SDS011;4909;42.680;26.324;2022-07-30T14:21:42;10.03;;;9.67;;
9739;SDS011;4909;42.680;26.324;2022-07-30T14:24:09;15.30;;;14.47;;
9739;SDS011;4909;42.680;26.324;2022-07-30T14:26:37;16.47;;;14.73;;
9739;SDS011;4909;42.680;26.324;2022-07-30T14:29:03;8.80;;;8.27;;
9739;SDS011;4909;42.680;26.324;2022-07-30T14:31:32;8.40;;;7.80;;
9739;SDS011;4909;42.680;26.324;2022-07-30T14:33:59;6.20;;;5.80;;
9739;SDS011;4909;42.680;26.324;2022-07-30T14:36:26;9.53;;;8.80;;
9739;SDS011;4909;42.680;26.324;2022-07-30T14:38:54;9.27;;;8.47;;
9739;SDS011;4909;42.680;26.324;2022-07-30T14:41:21;8.57;;;8.07;;
9739;SDS011;4909;42.680;26.324;2022-07-30T14:43:48;8.63;;;8.00;;
9739;SDS011;4909;42.680;26.324;2022-07-30T14:46:15;9.93;;;9.23;;
9739;SDS011;4909;42.680;26.324;2022-07-30T14:48:44;9.07;;;8.47;;
9739;SDS011;4909;42.680;26.324;2022-07-30T14:51:10;11.47;;;10.20;;
9739;SDS011;4909;42.680;26.324;2022-07-30T14:53:38;8.13;;;7.70;;
9739;SDS011;4909;42.680;26.324;2022-07-30T14:56:04;8.97;;;8.47;;
9739;SDS011;4909;42.680;26.324;2022-07-30T14:58:32;9.50;;;8.57;;
9739;SDS011;4909;42.680;26.324;2022-07-30T15:00:59;8.43;;;8.03;;
9739;SDS011;4909;42.680;26.324;2022-07-30T15:03:28;71.87;;;69.43;;
9739;SDS011;4909;42.680;26.324;2022-07-30T15:05:56;39.40;;;37.90;;
9739;SDS011;4909;42.680;26.324;2022-07-30T15:08:23;142.73;;;138.17;;
9739;SDS011;4909;42.680;26.324;2022-07-30T15:10:50;126.90;;;122.67;;
9739;SDS011;4909;42.680;26.324;2022-07-30T15:13:17;85.70;;;82.73;;
9739;SDS011;4909;42.680;26.324;2022-07-30T15:15:44;26.70;;;25.50;;
9739;SDS011;4909;42.680;26.324;2022-07-30T15:18:11;10.17;;;9.50;;
9739;SDS011;4909;42.680;26.324;2022-07-30T15:20:38;8.50;;;7.90;;
9739;SDS011;4909;42.680;26.324;2022-07-30T15:23:06;4.10;;;4.00;;
9739;SDS011;4909;42.680;26.324;2022-07-30T15:25:33;6.87;;;6.23;;
9739;SDS011;4909;42.680;26.324;2022-07-30T15:28:00;6.37;;;5.67;;
9739;SDS011;4909;42.680;26.324;2022-07-30T15:30:27;6.57;;;6.17;;
9739;SDS011;4909;42.680;26.324;2022-07-30T15:32:54;6.67;;;6.07;;
9739;SDS011;4909;42.680;26.324;2022-07-30T15:35:21;6.63;;;5.90;;